sensor_id;sensor_type;location;lat;lon;timestamp;P1;P2;P0
43280;PMS5003;62175;49.416;8.690;2022-10-14T00:01:05;20;20;
43280;PMS5003;62175;49.416;8.690;2022-10-14T00:03:34;22;20;
43280;PMS5003;62175;49.416;8.690;2022-10-14T00:06:04;15;15;
43280;PMS5003;62175;49.416;8.690;2022-10-14T00:08:31;18;15;
43280;PMS5003;62175;49.416;8.690;2022-10-14T00:11:02;19;16;
43280;PMS5003;62175;49.416;8.690;2022-10-14T00:13:30;12;12;
43280;PMS5003;62175;49.416;8.690;2022-10-14T00:15:58;17;17;
43280;PMS5003;62175;49.416;8.690;2022-10-14T00:18:25;15;14;
43280;PMS5003;62175;49.416;8.690;2022-10-14T00:20:52;19;17;
43280;PMS5003;62175;49.416;8.690;2022-10-14T00:23:20;15;14;
43280;PMS5003;62175;49.416;8.690;2022-10-14T00:25:47;16;16;
43280;PMS5003;62175;49.416;8.690;2022-10-14T00:28:14;14;14;
43280;PMS5003;62175;49.416;8.690;2022-10-14T00:30:41;14;14;
43280;PMS5003;62175;49.416;8.690;2022-10-14T00:33:17;15;14;
43280;PMS5003;62175;49.416;8.690;2022-10-14T00:35:47;18;15;
43280;PMS5003;62175;49.416;8.690;2022-10-14T00:38:19;15;14;
43280;PMS5003;62175;49.416;8.690;2022-10-14T00:40:46;19;19;
43280;PMS5003;62175;49.416;8.690;2022-10-14T00:43:13;14;13;
43280;PMS5003;62175;49.416;8.690;2022-10-14T00:45:40;16;14;
43280;PMS5003;62175;49.416;8.690;2022-10-14T00:48:07;15;14;
43280;PMS5003;62175;49.416;8.690;2022-10-14T00:50:35;15;14;
43280;PMS5003;62175;49.416;8.690;2022-10-14T00:53:04;16;16;
43280;PMS5003;62175;49.416;8.690;2022-10-14T00:55:31;13;12;
43280;PMS5003;62175;49.416;8.690;2022-10-14T00:57:59;16;15;
43280;PMS5003;62175;49.416;8.690;2022-10-14T01:00:26;13;13;
43280;PMS5003;62175;49.416;8.690;2022-10-14T01:02:54;14;14;
43280;PMS5003;62175;49.416;8.690;2022-10-14T01:05:22;19;16;
43280;PMS5003;62175;49.416;8.690;2022-10-14T01:07:58;14;13;
43280;PMS5003;62175;49.416;8.690;2022-10-14T01:10:32;20;18;
43280;PMS5003;62175;49.416;8.690;2022-10-14T01:13:09;13;13;
43280;PMS5003;62175;49.416;8.690;2022-10-14T01:15:45;16;14;
43280;PMS5003;62175;49.416;8.690;2022-10-14T01:18:24;15;14;
43280;PMS5003;62175;49.416;8.690;2022-10-14T01:21:07;14;13;
43280;PMS5003;62175;49.416;8.690;2022-10-14T01:23:45;17;16;
43280;PMS5003;62175;49.416;8.690;2022-10-14T01:26:33;12;12;
43280;PMS5003;62175;49.416;8.690;2022-10-14T01:29:19;14;13;
43280;PMS5003;62175;49.416;8.690;2022-10-14T01:31:59;19;18;
43280;PMS5003;62175;49.416;8.690;2022-10-14T01:34:29;14;11;
43280;PMS5003;62175;49.416;8.690;2022-10-14T01:37:07;16;15;
43280;PMS5003;62175;49.416;8.690;2022-10-14T01:39:43;12;12;
43280;PMS5003;62175;49.416;8.690;2022-10-14T01:42:15;16;14;
43280;PMS5003;62175;49.416;8.690;2022-10-14T01:44:50;15;14;
43280;PMS5003;62175;49.416;8.690;2022-10-14T01:47:23;14;14;
43280;PMS5003;62175;49.416;8.690;2022-10-14T01:49:56;15;13;
43280;PMS5003;62175;49.416;8.690;2022-10-14T01:52:26;15;15;
43280;PMS5003;62175;49.416;8.690;2022-10-14T01:54:58;16;15;
43280;PMS5003;62175;49.416;8.690;2022-10-14T01:57:30;16;15;
43280;PMS5003;62175;49.416;8.690;2022-10-14T02:00:02;15;15;
43280;PMS5003;62175;49.416;8.690;2022-10-14T02:02:33;16;15;
43280;PMS5003;62175;49.416;8.690;2022-10-14T02:05:02;13;13;
43280;PMS5003;62175;49.416;8.690;2022-10-14T02:07:33;13;13;
43280;PMS5003;62175;49.416;8.690;2022-10-14T02:10:06;15;14;
43280;PMS5003;62175;49.416;8.690;2022-10-14T02:12:48;15;14;
43280;PMS5003;62175;49.416;8.690;2022-10-14T02:15:24;17;15;
43280;PMS5003;62175;49.416;8.690;2022-10-14T02:17:59;16;15;
43280;PMS5003;62175;49.416;8.690;2022-10-14T02:20:32;15;14;
43280;PMS5003;62175;49.416;8.690;2022-10-14T02:23:05;16;15;
43280;PMS5003;62175;49.416;8.690;2022-10-14T02:25:37;18;18;
43280;PMS5003;62175;49.416;8.690;2022-10-14T02:28:07;18;16;
43280;PMS5003;62175;49.416;8.690;2022-10-14T02:30:38;15;14;
43280;PMS5003;62175;49.416;8.690;2022-10-14T02:33:10;24;23;
43280;PMS5003;62175;49.416;8.690;2022-10-14T02:35:38;21;21;
43280;PMS5003;62175;49.416;8.690;2022-10-14T02:38:06;20;18;
43280;PMS5003;62175;49.416;8.690;2022-10-14T02:40:36;18;17;
43280;PMS5003;62175;49.416;8.690;2022-10-14T02:43:07;19;15;
43280;PMS5003;62175;49.416;8.690;2022-10-14T02:45:35;24;22;
43280;PMS5003;62175;49.416;8.690;2022-10-14T02:48:03;20;19;
43280;PMS5003;62175;49.416;8.690;2022-10-14T02:50:31;23;21;
43280;PMS5003;62175;49.416;8.690;2022-10-14T02:52:58;17;16;
43280;PMS5003;62175;49.416;8.690;2022-10-14T02:55:25;19;16;
43280;PMS5003;62175;49.416;8.690;2022-10-14T02:57:53;21;21;
43280;PMS5003;62175;49.416;8.690;2022-10-14T03:00:20;18;17;
43280;PMS5003;62175;49.416;8.690;2022-10-14T03:02:47;20;17;
43280;PMS5003;62175;49.416;8.690;2022-10-14T03:05:15;20;17;
43280;PMS5003;62175;49.416;8.690;2022-10-14T03:07:42;17;16;
43280;PMS5003;62175;49.416;8.690;2022-10-14T03:10:08;19;18;
43280;PMS5003;62175;49.416;8.690;2022-10-14T03:12:36;17;15;
43280;PMS5003;62175;49.416;8.690;2022-10-14T03:15:03;19;18;
43280;PMS5003;62175;49.416;8.690;2022-10-14T03:17:31;17;16;
43280;PMS5003;62175;49.416;8.690;2022-10-14T03:19:58;17;16;
43280;PMS5003;62175;49.416;8.690;2022-10-14T03:22:25;15;14;
43280;PMS5003;62175;49.416;8.690;2022-10-14T03:24:52;20;19;
43280;PMS5003;62175;49.416;8.690;2022-10-14T03:27:19;21;19;
43280;PMS5003;62175;49.416;8.690;2022-10-14T03:29:46;20;17;
43280;PMS5003;62175;49.416;8.690;2022-10-14T03:32:13;17;16;
43280;PMS5003;62175;49.416;8.690;2022-10-14T03:34:40;18;17;
43280;PMS5003;62175;49.416;8.690;2022-10-14T03:37:07;23;21;
43280;PMS5003;62175;49.416;8.690;2022-10-14T03:39:33;16;14;
43280;PMS5003;62175;49.416;8.690;2022-10-14T03:42:00;20;18;
43280;PMS5003;62175;49.416;8.690;2022-10-14T03:44:27;16;15;
43280;PMS5003;62175;49.416;8.690;2022-10-14T03:46:54;16;16;
43280;PMS5003;62175;49.416;8.690;2022-10-14T03:49:22;18;17;
43280;PMS5003;62175;49.416;8.690;2022-10-14T03:51:48;18;18;
43280;PMS5003;62175;49.416;8.690;2022-10-14T03:54:16;15;14;
43280;PMS5003;62175;49.416;8.690;2022-10-14T03:56:43;19;16;
43280;PMS5003;62175;49.416;8.690;2022-10-14T03:59:10;19;18;
43280;PMS5003;62175;49.416;8.690;2022-10-14T04:01:37;21;17;
43280;PMS5003;62175;49.416;8.690;2022-10-14T04:04:04;20;19;
43280;PMS5003;62175;49.416;8.690;2022-10-14T04:06:31;17;17;
43280;PMS5003;62175;49.416;8.690;2022-10-14T04:08:58;18;15;
43280;PMS5003;62175;49.416;8.690;2022-10-14T04:11:25;21;20;
43280;PMS5003;62175;49.416;8.690;2022-10-14T04:13:52;14;13;
43280;PMS5003;62175;49.416;8.690;2022-10-14T04:16:24;16;16;
43280;PMS5003;62175;49.416;8.690;2022-10-14T04:18:52;16;16;
43280;PMS5003;62175;49.416;8.690;2022-10-14T04:21:19;18;17;
43280;PMS5003;62175;49.416;8.690;2022-10-14T04:23:46;19;19;
43280;PMS5003;62175;49.416;8.690;2022-10-14T04:26:14;18;17;
43280;PMS5003;62175;49.416;8.690;2022-10-14T04:28:41;19;18;
43280;PMS5003;62175;49.416;8.690;2022-10-14T04:31:08;21;18;
43280;PMS5003;62175;49.416;8.690;2022-10-14T04:33:35;19;16;
43280;PMS5003;62175;49.416;8.690;2022-10-14T04:36:04;21;19;
43280;PMS5003;62175;49.416;8.690;2022-10-14T04:38:32;16;16;
43280;PMS5003;62175;49.416;8.690;2022-10-14T04:40:59;18;17;
43280;PMS5003;62175;49.416;8.690;2022-10-14T04:43:26;17;16;
43280;PMS5003;62175;49.416;8.690;2022-10-14T04:45:53;20;18;
43280;PMS5003;62175;49.416;8.690;2022-10-14T04:48:27;25;22;
43280;PMS5003;62175;49.416;8.690;2022-10-14T04:50:55;15;14;
43280;PMS5003;62175;49.416;8.690;2022-10-14T04:53:22;19;18;
43280;PMS5003;62175;49.416;8.690;2022-10-14T04:55:49;22;20;
43280;PMS5003;62175;49.416;8.690;2022-10-14T04:58:16;20;19;
43280;PMS5003;62175;49.416;8.690;2022-10-14T05:00:43;19;17;
43280;PMS5003;62175;49.416;8.690;2022-10-14T05:03:10;16;15;
43280;PMS5003;62175;49.416;8.690;2022-10-14T05:05:36;19;17;
43280;PMS5003;62175;49.416;8.690;2022-10-14T05:08:04;19;18;
43280;PMS5003;62175;49.416;8.690;2022-10-14T05:10:32;18;16;
43280;PMS5003;62175;49.416;8.690;2022-10-14T05:12:59;19;17;
43280;PMS5003;62175;49.416;8.690;2022-10-14T05:15:26;23;21;
43280;PMS5003;62175;49.416;8.690;2022-10-14T05:17:53;18;16;
43280;PMS5003;62175;49.416;8.690;2022-10-14T05:20:20;19;18;
43280;PMS5003;62175;49.416;8.690;2022-10-14T05:22:47;21;19;
43280;PMS5003;62175;49.416;8.690;2022-10-14T05:25:14;16;16;
43280;PMS5003;62175;49.416;8.690;2022-10-14T05:27:42;21;21;
43280;PMS5003;62175;49.416;8.690;2022-10-14T05:30:10;25;20;
43280;PMS5003;62175;49.416;8.690;2022-10-14T05:32:38;21;20;
43280;PMS5003;62175;49.416;8.690;2022-10-14T05:35:05;21;20;
43280;PMS5003;62175;49.416;8.690;2022-10-14T05:37:32;20;17;
43280;PMS5003;62175;49.416;8.690;2022-10-14T05:39:59;21;21;
43280;PMS5003;62175;49.416;8.690;2022-10-14T05:42:27;22;21;
43280;PMS5003;62175;49.416;8.690;2022-10-14T05:44:54;25;22;
43280;PMS5003;62175;49.416;8.690;2022-10-14T05:47:21;24;21;
43280;PMS5003;62175;49.416;8.690;2022-10-14T05:49:48;29;22;
43280;PMS5003;62175;49.416;8.690;2022-10-14T05:52:15;20;19;
43280;PMS5003;62175;49.416;8.690;2022-10-14T05:54:42;22;20;
43280;PMS5003;62175;49.416;8.690;2022-10-14T05:57:10;23;22;
43280;PMS5003;62175;49.416;8.690;2022-10-14T05:59:37;17;16;
43280;PMS5003;62175;49.416;8.690;2022-10-14T06:02:04;20;20;
43280;PMS5003;62175;49.416;8.690;2022-10-14T06:04:31;22;19;
43280;PMS5003;62175;49.416;8.690;2022-10-14T06:06:58;27;19;
43280;PMS5003;62175;49.416;8.690;2022-10-14T06:09:25;22;20;
43280;PMS5003;62175;49.416;8.690;2022-10-14T06:11:53;21;20;
43280;PMS5003;62175;49.416;8.690;2022-10-14T06:14:20;22;21;
43280;PMS5003;62175;49.416;8.690;2022-10-14T06:16:48;20;19;
43280;PMS5003;62175;49.416;8.690;2022-10-14T06:19:16;17;15;
43280;PMS5003;62175;49.416;8.690;2022-10-14T06:21:43;22;19;
43280;PMS5003;62175;49.416;8.690;2022-10-14T06:24:10;20;19;
43280;PMS5003;62175;49.416;8.690;2022-10-14T06:26:37;21;17;
43280;PMS5003;62175;49.416;8.690;2022-10-14T06:29:04;19;18;
43280;PMS5003;62175;49.416;8.690;2022-10-14T06:31:32;25;24;
43280;PMS5003;62175;49.416;8.690;2022-10-14T06:34:01;19;18;
43280;PMS5003;62175;49.416;8.690;2022-10-14T06:36:30;18;18;
43280;PMS5003;62175;49.416;8.690;2022-10-14T06:38:59;21;18;
43280;PMS5003;62175;49.416;8.690;2022-10-14T06:41:27;23;21;
43280;PMS5003;62175;49.416;8.690;2022-10-14T06:43:54;19;19;
43280;PMS5003;62175;49.416;8.690;2022-10-14T06:46:21;21;19;
43280;PMS5003;62175;49.416;8.690;2022-10-14T06:48:49;26;22;
43280;PMS5003;62175;49.416;8.690;2022-10-14T06:51:16;23;22;
43280;PMS5003;62175;49.416;8.690;2022-10-14T06:53:43;24;20;
43280;PMS5003;62175;49.416;8.690;2022-10-14T06:56:10;18;18;
43280;PMS5003;62175;49.416;8.690;2022-10-14T06:58:37;18;16;
43280;PMS5003;62175;49.416;8.690;2022-10-14T07:01:05;17;15;
43280;PMS5003;62175;49.416;8.690;2022-10-14T07:03:33;22;19;
43280;PMS5003;62175;49.416;8.690;2022-10-14T07:06:01;17;17;
43280;PMS5003;62175;49.416;8.690;2022-10-14T07:08:28;20;18;
43280;PMS5003;62175;49.416;8.690;2022-10-14T07:10:56;17;16;
43280;PMS5003;62175;49.416;8.690;2022-10-14T07:13:24;20;20;
43280;PMS5003;62175;49.416;8.690;2022-10-14T07:15:51;21;19;
43280;PMS5003;62175;49.416;8.690;2022-10-14T07:18:30;19;16;
43280;PMS5003;62175;49.416;8.690;2022-10-14T07:21:03;14;13;
43280;PMS5003;62175;49.416;8.690;2022-10-14T07:23:31;18;17;
43280;PMS5003;62175;49.416;8.690;2022-10-14T07:25:59;15;14;
43280;PMS5003;62175;49.416;8.690;2022-10-14T07:28:27;14;14;
43280;PMS5003;62175;49.416;8.690;2022-10-14T07:30:56;13;12;
43280;PMS5003;62175;49.416;8.690;2022-10-14T07:33:24;15;14;
43280;PMS5003;62175;49.416;8.690;2022-10-14T07:35:52;11;11;
43280;PMS5003;62175;49.416;8.690;2022-10-14T07:38:19;13;13;
43280;PMS5003;62175;49.416;8.690;2022-10-14T07:40:54;13;12;
43280;PMS5003;62175;49.416;8.690;2022-10-14T07:43:22;18;17;
43280;PMS5003;62175;49.416;8.690;2022-10-14T07:45:49;12;11;
43280;PMS5003;62175;49.416;8.690;2022-10-14T07:48:16;17;17;
43280;PMS5003;62175;49.416;8.690;2022-10-14T07:50:48;17;17;
43280;PMS5003;62175;49.416;8.690;2022-10-14T07:53:16;17;16;
43280;PMS5003;62175;49.416;8.690;2022-10-14T07:55:43;11;11;
43280;PMS5003;62175;49.416;8.690;2022-10-14T07:58:10;14;13;
43280;PMS5003;62175;49.416;8.690;2022-10-14T08:00:37;13;13;
43280;PMS5003;62175;49.416;8.690;2022-10-14T08:03:04;15;14;
43280;PMS5003;62175;49.416;8.690;2022-10-14T08:05:32;15;15;
43280;PMS5003;62175;49.416;8.690;2022-10-14T08:08:00;15;15;
43280;PMS5003;62175;49.416;8.690;2022-10-14T08:10:27;12;11;
43280;PMS5003;62175;49.416;8.690;2022-10-14T08:12:55;11;10;
43280;PMS5003;62175;49.416;8.690;2022-10-14T08:15:22;14;13;
43280;PMS5003;62175;49.416;8.690;2022-10-14T08:17:49;14;14;
43280;PMS5003;62175;49.416;8.690;2022-10-14T08:20:17;15;15;
43280;PMS5003;62175;49.416;8.690;2022-10-14T08:22:44;16;15;
43280;PMS5003;62175;49.416;8.690;2022-10-14T08:25:11;13;13;
43280;PMS5003;62175;49.416;8.690;2022-10-14T08:27:38;16;14;
43280;PMS5003;62175;49.416;8.690;2022-10-14T08:30:06;15;14;
43280;PMS5003;62175;49.416;8.690;2022-10-14T08:32:36;14;14;
43280;PMS5003;62175;49.416;8.690;2022-10-14T08:35:03;16;14;
43280;PMS5003;62175;49.416;8.690;2022-10-14T08:37:31;16;14;
43280;PMS5003;62175;49.416;8.690;2022-10-14T08:39:58;11;11;
43280;PMS5003;62175;49.416;8.690;2022-10-14T08:42:29;16;16;
43280;PMS5003;62175;49.416;8.690;2022-10-14T08:45:03;15;13;
43280;PMS5003;62175;49.416;8.690;2022-10-14T08:47:35;11;11;
43280;PMS5003;62175;49.416;8.690;2022-10-14T08:50:06;13;13;
43280;PMS5003;62175;49.416;8.690;2022-10-14T08:52:49;15;14;
43280;PMS5003;62175;49.416;8.690;2022-10-14T08:55:22;16;15;
43280;PMS5003;62175;49.416;8.690;2022-10-14T08:57:56;14;13;
43280;PMS5003;62175;49.416;8.690;2022-10-14T09:00:28;12;10;
43280;PMS5003;62175;49.416;8.690;2022-10-14T09:02:58;11;10;
43280;PMS5003;62175;49.416;8.690;2022-10-14T09:05:27;10;10;
43280;PMS5003;62175;49.416;8.690;2022-10-14T09:07:55;12;10;
43280;PMS5003;62175;49.416;8.690;2022-10-14T09:10:25;11;11;
43280;PMS5003;62175;49.416;8.690;2022-10-14T09:12:57;12;11;
43280;PMS5003;62175;49.416;8.690;2022-10-14T09:15:32;11;10;
43280;PMS5003;62175;49.416;8.690;2022-10-14T09:18:04;13;11;
43280;PMS5003;62175;49.416;8.690;2022-10-14T09:20:36;12;11;
43280;PMS5003;62175;49.416;8.690;2022-10-14T09:23:10;11;11;
43280;PMS5003;62175;49.416;8.690;2022-10-14T09:25:43;13;12;
43280;PMS5003;62175;49.416;8.690;2022-10-14T09:28:18;9;9;
43280;PMS5003;62175;49.416;8.690;2022-10-14T09:30:45;10;10;
43280;PMS5003;62175;49.416;8.690;2022-10-14T09:33:13;10;10;
43280;PMS5003;62175;49.416;8.690;2022-10-14T09:35:44;12;11;
43280;PMS5003;62175;49.416;8.690;2022-10-14T09:38:11;10;9;
43280;PMS5003;62175;49.416;8.690;2022-10-14T09:40:40;11;10;
43280;PMS5003;62175;49.416;8.690;2022-10-14T09:43:12;11;10;
43280;PMS5003;62175;49.416;8.690;2022-10-14T09:45:50;11;10;
43280;PMS5003;62175;49.416;8.690;2022-10-14T09:48:23;9;8;
43280;PMS5003;62175;49.416;8.690;2022-10-14T09:50:56;12;10;
43280;PMS5003;62175;49.416;8.690;2022-10-14T09:53:27;8;8;
43280;PMS5003;62175;49.416;8.690;2022-10-14T09:56:00;9;9;
43280;PMS5003;62175;49.416;8.690;2022-10-14T09:58:29;9;9;
43280;PMS5003;62175;49.416;8.690;2022-10-14T10:01:01;7;7;
43280;PMS5003;62175;49.416;8.690;2022-10-14T10:03:29;11;10;
43280;PMS5003;62175;49.416;8.690;2022-10-14T10:06:00;6;6;
43280;PMS5003;62175;49.416;8.690;2022-10-14T10:08:30;10;9;
43280;PMS5003;62175;49.416;8.690;2022-10-14T10:11:00;9;9;
43280;PMS5003;62175;49.416;8.690;2022-10-14T10:13:30;10;10;
43280;PMS5003;62175;49.416;8.690;2022-10-14T10:16:00;10;10;
43280;PMS5003;62175;49.416;8.690;2022-10-14T10:16:01;10;10;
43280;PMS5003;62175;49.416;8.690;2022-10-14T10:18:29;10;9;
43280;PMS5003;62175;49.416;8.690;2022-10-14T10:20:59;14;10;
43280;PMS5003;62175;49.416;8.690;2022-10-14T10:23:28;13;13;
43280;PMS5003;62175;49.416;8.690;2022-10-14T10:25:55;12;12;
43280;PMS5003;62175;49.416;8.690;2022-10-14T10:28:43;7;7;
43280;PMS5003;62175;49.416;8.690;2022-10-14T10:31:16;7;7;
43280;PMS5003;62175;49.416;8.690;2022-10-14T10:33:55;9;9;
43280;PMS5003;62175;49.416;8.690;2022-10-14T10:36:29;11;10;
43280;PMS5003;62175;49.416;8.690;2022-10-14T10:39:01;8;8;
43280;PMS5003;62175;49.416;8.690;2022-10-14T10:41:43;10;8;
43280;PMS5003;62175;49.416;8.690;2022-10-14T10:44:24;10;9;
43280;PMS5003;62175;49.416;8.690;2022-10-14T10:47:09;10;10;
43280;PMS5003;62175;49.416;8.690;2022-10-14T10:49:54;10;9;
43280;PMS5003;62175;49.416;8.690;2022-10-14T10:52:33;7;7;
43280;PMS5003;62175;49.416;8.690;2022-10-14T10:55:17;8;8;
43280;PMS5003;62175;49.416;8.690;2022-10-14T10:57:56;10;8;
43280;PMS5003;62175;49.416;8.690;2022-10-14T11:00:33;9;7;
43280;PMS5003;62175;49.416;8.690;2022-10-14T11:03:17;9;8;
43280;PMS5003;62175;49.416;8.690;2022-10-14T11:05:57;10;9;
43280;PMS5003;62175;49.416;8.690;2022-10-14T11:08:36;7;6;
43280;PMS5003;62175;49.416;8.690;2022-10-14T11:11:18;8;7;
43280;PMS5003;62175;49.416;8.690;2022-10-14T11:13:50;8;8;
43280;PMS5003;62175;49.416;8.690;2022-10-14T11:16:24;8;8;
43280;PMS5003;62175;49.416;8.690;2022-10-14T11:18:56;7;7;
43280;PMS5003;62175;49.416;8.690;2022-10-14T11:21:32;9;8;
43280;PMS5003;62175;49.416;8.690;2022-10-14T11:24:08;8;8;
43280;PMS5003;62175;49.416;8.690;2022-10-14T11:26:50;8;8;
43280;PMS5003;62175;49.416;8.690;2022-10-14T11:29:28;8;7;
43280;PMS5003;62175;49.416;8.690;2022-10-14T11:32:18;9;8;
43280;PMS5003;62175;49.416;8.690;2022-10-14T11:34:52;12;10;
43280;PMS5003;62175;49.416;8.690;2022-10-14T11:37:36;9;9;
43280;PMS5003;62175;49.416;8.690;2022-10-14T11:40:14;12;11;
43280;PMS5003;62175;49.416;8.690;2022-10-14T11:42:49;9;9;
43280;PMS5003;62175;49.416;8.690;2022-10-14T11:45:34;8;8;
43280;PMS5003;62175;49.416;8.690;2022-10-14T11:48:14;9;8;
43280;PMS5003;62175;49.416;8.690;2022-10-14T11:50:50;6;6;
43280;PMS5003;62175;49.416;8.690;2022-10-14T11:53:23;9;9;
43280;PMS5003;62175;49.416;8.690;2022-10-14T11:55:59;8;8;
43280;PMS5003;62175;49.416;8.690;2022-10-14T11:58:30;8;7;
43280;PMS5003;62175;49.416;8.690;2022-10-14T12:01:12;9;9;
43280;PMS5003;62175;49.416;8.690;2022-10-14T12:03:46;10;9;
43280;PMS5003;62175;49.416;8.690;2022-10-14T12:06:24;10;9;
43280;PMS5003;62175;49.416;8.690;2022-10-14T12:08:56;9;9;
43280;PMS5003;62175;49.416;8.690;2022-10-14T12:11:29;11;9;
43280;PMS5003;62175;49.416;8.690;2022-10-14T12:14:03;7;7;
43280;PMS5003;62175;49.416;8.690;2022-10-14T12:16:36;10;7;
43280;PMS5003;62175;49.416;8.690;2022-10-14T12:19:09;8;7;
43280;PMS5003;62175;49.416;8.690;2022-10-14T12:21:39;9;8;
43280;PMS5003;62175;49.416;8.690;2022-10-14T12:24:13;13;10;
43280;PMS5003;62175;49.416;8.690;2022-10-14T12:26:46;8;8;
43280;PMS5003;62175;49.416;8.690;2022-10-14T12:29:18;9;8;
43280;PMS5003;62175;49.416;8.690;2022-10-14T12:31:49;7;7;
43280;PMS5003;62175;49.416;8.690;2022-10-14T12:34:35;8;6;
43280;PMS5003;62175;49.416;8.690;2022-10-14T12:37:46;10;9;
43280;PMS5003;62175;49.416;8.690;2022-10-14T12:40:22;9;7;
43280;PMS5003;62175;49.416;8.690;2022-10-14T12:42:57;10;10;
43280;PMS5003;62175;49.416;8.690;2022-10-14T12:45:47;11;11;
43280;PMS5003;62175;49.416;8.690;2022-10-14T12:48:22;12;12;
43280;PMS5003;62175;49.416;8.690;2022-10-14T12:50:53;9;9;
43280;PMS5003;62175;49.416;8.690;2022-10-14T12:53:31;8;7;
43280;PMS5003;62175;49.416;8.690;2022-10-14T12:56:00;8;8;
43280;PMS5003;62175;49.416;8.690;2022-10-14T12:58:30;9;8;
43280;PMS5003;62175;49.416;8.690;2022-10-14T13:01:00;8;8;
43280;PMS5003;62175;49.416;8.690;2022-10-14T13:03:32;8;8;
43280;PMS5003;62175;49.416;8.690;2022-10-14T13:06:39;8;8;
43280;PMS5003;62175;49.416;8.690;2022-10-14T13:09:17;8;7;
43280;PMS5003;62175;49.416;8.690;2022-10-14T13:13:44;8;8;
43280;PMS5003;62175;49.416;8.690;2022-10-14T13:16:53;9;9;
43280;PMS5003;62175;49.416;8.690;2022-10-14T13:19:39;11;9;
43280;PMS5003;62175;49.416;8.690;2022-10-14T13:22:33;6;5;
43280;PMS5003;62175;49.416;8.690;2022-10-14T13:25:04;10;9;
43280;PMS5003;62175;49.416;8.690;2022-10-14T13:27:40;5;4;
43280;PMS5003;62175;49.416;8.690;2022-10-14T13:30:15;6;6;
43280;PMS5003;62175;49.416;8.690;2022-10-14T13:32:47;5;5;
43280;PMS5003;62175;49.416;8.690;2022-10-14T13:35:22;7;6;
43280;PMS5003;62175;49.416;8.690;2022-10-14T13:37:55;7;7;
43280;PMS5003;62175;49.416;8.690;2022-10-14T13:40:28;6;6;
43280;PMS5003;62175;49.416;8.690;2022-10-14T13:42:58;6;6;
43280;PMS5003;62175;49.416;8.690;2022-10-14T13:45:28;7;7;
43280;PMS5003;62175;49.416;8.690;2022-10-14T13:48:00;6;6;
43280;PMS5003;62175;49.416;8.690;2022-10-14T13:50:31;7;6;
43280;PMS5003;62175;49.416;8.690;2022-10-14T13:53:03;8;7;
43280;PMS5003;62175;49.416;8.690;2022-10-14T13:55:31;7;7;
43280;PMS5003;62175;49.416;8.690;2022-10-14T13:58:10;8;7;
43280;PMS5003;62175;49.416;8.690;2022-10-14T14:00:39;6;6;
43280;PMS5003;62175;49.416;8.690;2022-10-14T14:03:13;8;7;
43280;PMS5003;62175;49.416;8.690;2022-10-14T14:05:45;7;7;
43280;PMS5003;62175;49.416;8.690;2022-10-14T14:08:15;8;7;
43280;PMS5003;62175;49.416;8.690;2022-10-14T14:10:50;6;6;
43280;PMS5003;62175;49.416;8.690;2022-10-14T14:13:19;9;8;
43280;PMS5003;62175;49.416;8.690;2022-10-14T14:15:48;8;8;
43280;PMS5003;62175;49.416;8.690;2022-10-14T14:18:23;6;6;
43280;PMS5003;62175;49.416;8.690;2022-10-14T14:20:55;7;7;
43280;PMS5003;62175;49.416;8.690;2022-10-14T14:23:24;9;7;
43280;PMS5003;62175;49.416;8.690;2022-10-14T14:25:51;7;7;
43280;PMS5003;62175;49.416;8.690;2022-10-14T14:28:20;6;6;
43280;PMS5003;62175;49.416;8.690;2022-10-14T14:30:53;6;6;
43280;PMS5003;62175;49.416;8.690;2022-10-14T14:33:23;6;6;
43280;PMS5003;62175;49.416;8.690;2022-10-14T14:35:55;8;8;
43280;PMS5003;62175;49.416;8.690;2022-10-14T14:38:25;7;6;
43280;PMS5003;62175;49.416;8.690;2022-10-14T14:41:03;7;7;
43280;PMS5003;62175;49.416;8.690;2022-10-14T14:43:32;8;8;
43280;PMS5003;62175;49.416;8.690;2022-10-14T14:46:01;7;7;
43280;PMS5003;62175;49.416;8.690;2022-10-14T14:48:30;10;9;
43280;PMS5003;62175;49.416;8.690;2022-10-14T14:50:58;6;6;
43280;PMS5003;62175;49.416;8.690;2022-10-14T14:53:26;8;8;
43280;PMS5003;62175;49.416;8.690;2022-10-14T14:55:59;7;7;
43280;PMS5003;62175;49.416;8.690;2022-10-14T14:58:31;9;9;
43280;PMS5003;62175;49.416;8.690;2022-10-14T15:01:03;8;8;
43280;PMS5003;62175;49.416;8.690;2022-10-14T15:03:33;8;8;
43280;PMS5003;62175;49.416;8.690;2022-10-14T15:06:16;8;7;
43280;PMS5003;62175;49.416;8.690;2022-10-14T15:08:47;9;9;
43280;PMS5003;62175;49.416;8.690;2022-10-14T15:11:16;8;7;
43280;PMS5003;62175;49.416;8.690;2022-10-14T15:13:46;10;9;
43280;PMS5003;62175;49.416;8.690;2022-10-14T15:16:32;8;7;
43280;PMS5003;62175;49.416;8.690;2022-10-14T15:19:34;7;7;
43280;PMS5003;62175;49.416;8.690;2022-10-14T15:22:17;7;7;
43280;PMS5003;62175;49.416;8.690;2022-10-14T15:25:55;7;7;
43280;PMS5003;62175;49.416;8.690;2022-10-14T15:28:30;7;7;
43280;PMS5003;62175;49.416;8.690;2022-10-14T15:30:58;5;5;
43280;PMS5003;62175;49.416;8.690;2022-10-14T15:33:26;6;5;
43280;PMS5003;62175;49.416;8.690;2022-10-14T15:35:53;5;4;
43280;PMS5003;62175;49.416;8.690;2022-10-14T15:38:21;5;5;
43280;PMS5003;62175;49.416;8.690;2022-10-14T15:40:49;4;4;
43280;PMS5003;62175;49.416;8.690;2022-10-14T15:43:18;6;6;
43280;PMS5003;62175;49.416;8.690;2022-10-14T15:45:47;4;4;
43280;PMS5003;62175;49.416;8.690;2022-10-14T15:48:17;4;4;
43280;PMS5003;62175;49.416;8.690;2022-10-14T15:50:45;7;7;
43280;PMS5003;62175;49.416;8.690;2022-10-14T15:53:13;7;7;
43280;PMS5003;62175;49.416;8.690;2022-10-14T15:55:43;6;5;
43280;PMS5003;62175;49.416;8.690;2022-10-14T15:58:10;6;6;
43280;PMS5003;62175;49.416;8.690;2022-10-14T16:00:37;7;6;
43280;PMS5003;62175;49.416;8.690;2022-10-14T16:03:04;6;5;
43280;PMS5003;62175;49.416;8.690;2022-10-14T16:05:31;5;5;
43280;PMS5003;62175;49.416;8.690;2022-10-14T16:07:58;6;5;
43280;PMS5003;62175;49.416;8.690;2022-10-14T16:10:25;6;5;
43280;PMS5003;62175;49.416;8.690;2022-10-14T16:12:52;8;6;
43280;PMS5003;62175;49.416;8.690;2022-10-14T16:15:37;4;4;
43280;PMS5003;62175;49.416;8.690;2022-10-14T16:18:09;7;6;
43280;PMS5003;62175;49.416;8.690;2022-10-14T16:20:36;6;5;
43280;PMS5003;62175;49.416;8.690;2022-10-14T16:23:03;5;5;
43280;PMS5003;62175;49.416;8.690;2022-10-14T16:25:32;7;6;
43280;PMS5003;62175;49.416;8.690;2022-10-14T16:28:02;5;5;
43280;PMS5003;62175;49.416;8.690;2022-10-14T16:30:29;7;5;
43280;PMS5003;62175;49.416;8.690;2022-10-14T16:32:56;7;7;
43280;PMS5003;62175;49.416;8.690;2022-10-14T16:35:23;6;5;
43280;PMS5003;62175;49.416;8.690;2022-10-14T16:37:50;5;5;
43280;PMS5003;62175;49.416;8.690;2022-10-14T16:40:17;8;6;
43280;PMS5003;62175;49.416;8.690;2022-10-14T16:42:44;6;5;
43280;PMS5003;62175;49.416;8.690;2022-10-14T16:45:11;6;6;
43280;PMS5003;62175;49.416;8.690;2022-10-14T16:47:38;6;5;
43280;PMS5003;62175;49.416;8.690;2022-10-14T16:50:06;5;5;
43280;PMS5003;62175;49.416;8.690;2022-10-14T16:52:34;5;5;
43280;PMS5003;62175;49.416;8.690;2022-10-14T16:55:02;6;6;